« Back
NWS Peachtree City, Ga » Text Product » CSG Terminal Aerodrome Forecast


Printer-friendly Version
Current Version              Previous Versions:   1  2  3  4  5  6  7  8  9  

Terminal Aerodrome Forecast

953
FTUS42 KFFC 280528
TAFCSG
TAF
KCSG 280528Z 2806/2906 07005KT P6SM BKN200
     FM281400 10010KT P6SM SCT050 BKN120
     FM281700 09005KT 6SM SHRA BKN040
     FM282100 06010G15KT 5SM SHRA OVC035
     FM290100 05009G14KT 3SM SHRA OVC012=



USA.gov is the U.S. government's official web portal to all federal, state and local government web resources and services.